sensor_id;sensor_type;location;lat;lon;timestamp;temperature;humidity
837;DHT22;400;53.550;9.932;2023-08-21T00:01:50;20.50;1.00
837;DHT22;400;53.550;9.932;2023-08-21T00:04:17;20.60;1.00
837;DHT22;400;53.550;9.932;2023-08-21T00:06:44;20.50;1.00
837;DHT22;400;53.550;9.932;2023-08-21T00:09:11;20.50;1.00
837;DHT22;400;53.550;9.932;2023-08-21T00:11:37;20.50;1.00
837;DHT22;400;53.550;9.932;2023-08-21T00:14:04;20.40;1.00
837;DHT22;400;53.550;9.932;2023-08-21T00:16:33;20.40;1.00
837;DHT22;400;53.550;9.932;2023-08-21T00:19:00;20.30;1.00
837;DHT22;400;53.550;9.932;2023-08-21T00:21:27;20.40;1.00
837;DHT22;400;53.550;9.932;2023-08-21T00:23:55;20.30;1.00
837;DHT22;400;53.550;9.932;2023-08-21T00:26:21;20.40;1.00
837;DHT22;400;53.550;9.932;2023-08-21T00:28:49;20.40;1.00
837;DHT22;400;53.550;9.932;2023-08-21T00:31:15;20.40;1.00
837;DHT22;400;53.550;9.932;2023-08-21T00:33:44;20.40;1.00
837;DHT22;400;53.550;9.932;2023-08-21T00:36:11;20.40;1.00
837;DHT22;400;53.550;9.932;2023-08-21T00:38:37;20.40;1.00
837;DHT22;400;53.550;9.932;2023-08-21T00:41:05;20.30;1.00
837;DHT22;400;53.550;9.932;2023-08-21T00:43:32;20.20;1.00
837;DHT22;400;53.550;9.932;2023-08-21T00:45:59;20.20;1.00
837;DHT22;400;53.550;9.932;2023-08-21T00:48:27;20.30;1.00
837;DHT22;400;53.550;9.932;2023-08-21T00:50:56;20.20;1.00
837;DHT22;400;53.550;9.932;2023-08-21T00:53:26;20.00;1.00
837;DHT22;400;53.550;9.932;2023-08-21T00:55:53;19.90;1.00
837;DHT22;400;53.550;9.932;2023-08-21T00:58:22;19.80;1.00
837;DHT22;400;53.550;9.932;2023-08-21T01:00:49;19.80;1.00
837;DHT22;400;53.550;9.932;2023-08-21T01:03:17;19.70;1.00
837;DHT22;400;53.550;9.932;2023-08-21T01:05:44;19.70;1.00
837;DHT22;400;53.550;9.932;2023-08-21T01:08:15;19.70;1.00
837;DHT22;400;53.550;9.932;2023-08-21T01:10:48;19.70;1.00
837;DHT22;400;53.550;9.932;2023-08-21T01:13:26;19.70;1.00
837;DHT22;400;53.550;9.932;2023-08-21T01:15:54;19.70;1.00
837;DHT22;400;53.550;9.932;2023-08-21T01:18:22;19.60;1.00
837;DHT22;400;53.550;9.932;2023-08-21T01:20:49;19.60;1.00
837;DHT22;400;53.550;9.932;2023-08-21T01:23:30;19.60;1.00
837;DHT22;400;53.550;9.932;2023-08-21T01:25:57;19.50;1.00
837;DHT22;400;53.550;9.932;2023-08-21T01:28:24;19.50;1.00
837;DHT22;400;53.550;9.932;2023-08-21T01:30:59;19.50;1.00
837;DHT22;400;53.550;9.932;2023-08-21T01:33:29;19.50;1.00
837;DHT22;400;53.550;9.932;2023-08-21T01:35:58;19.40;1.00
837;DHT22;400;53.550;9.932;2023-08-21T01:38:25;19.40;1.00
837;DHT22;400;53.550;9.932;2023-08-21T01:40:53;19.40;1.00
837;DHT22;400;53.550;9.932;2023-08-21T01:43:20;19.30;1.00
837;DHT22;400;53.550;9.932;2023-08-21T01:45:47;19.30;1.00
837;DHT22;400;53.550;9.932;2023-08-21T01:48:14;19.30;1.00
837;DHT22;400;53.550;9.932;2023-08-21T01:50:40;19.20;1.00
837;DHT22;400;53.550;9.932;2023-08-21T01:53:07;19.20;1.00
837;DHT22;400;53.550;9.932;2023-08-21T01:55:34;19.20;1.00
837;DHT22;400;53.550;9.932;2023-08-21T01:58:02;19.30;1.00
837;DHT22;400;53.550;9.932;2023-08-21T02:00:29;19.30;1.00
837;DHT22;400;53.550;9.932;2023-08-21T02:02:56;19.30;1.00
837;DHT22;400;53.550;9.932;2023-08-21T02:05:23;19.20;1.00
837;DHT22;400;53.550;9.932;2023-08-21T02:07:50;19.20;1.00
837;DHT22;400;53.550;9.932;2023-08-21T02:10:16;19.20;1.00
837;DHT22;400;53.550;9.932;2023-08-21T02:12:43;19.20;1.00
837;DHT22;400;53.550;9.932;2023-08-21T02:15:11;19.10;1.00
837;DHT22;400;53.550;9.932;2023-08-21T02:17:39;19.10;3.20
837;DHT22;400;53.550;9.932;2023-08-21T02:20:09;19.10;3.60
837;DHT22;400;53.550;9.932;2023-08-21T02:22:36;19.10;4.20
837;DHT22;400;53.550;9.932;2023-08-21T02:25:06;19.10;1.00
837;DHT22;400;53.550;9.932;2023-08-21T02:27:33;19.00;1.00
837;DHT22;400;53.550;9.932;2023-08-21T02:30:00;19.00;1.00
837;DHT22;400;53.550;9.932;2023-08-21T02:32:28;19.00;1.00
837;DHT22;400;53.550;9.932;2023-08-21T02:34:55;19.00;1.00
837;DHT22;400;53.550;9.932;2023-08-21T02:37:22;19.00;1.00
837;DHT22;400;53.550;9.932;2023-08-21T02:39:48;18.90;1.00
837;DHT22;400;53.550;9.932;2023-08-21T02:42:15;18.80;1.00
837;DHT22;400;53.550;9.932;2023-08-21T02:44:44;18.80;1.00
837;DHT22;400;53.550;9.932;2023-08-21T02:47:12;18.80;1.00
837;DHT22;400;53.550;9.932;2023-08-21T02:49:41;18.80;1.00
837;DHT22;400;53.550;9.932;2023-08-21T02:52:08;18.80;1.00
837;DHT22;400;53.550;9.932;2023-08-21T02:54:35;18.80;1.00
837;DHT22;400;53.550;9.932;2023-08-21T02:57:01;18.70;1.00
837;DHT22;400;53.550;9.932;2023-08-21T02:59:28;18.70;1.00
837;DHT22;400;53.550;9.932;2023-08-21T03:01:56;18.70;1.00
837;DHT22;400;53.550;9.932;2023-08-21T03:04:23;18.60;1.00
837;DHT22;400;53.550;9.932;2023-08-21T03:06:51;18.60;1.00
837;DHT22;400;53.550;9.932;2023-08-21T03:09:18;18.60;1.00
837;DHT22;400;53.550;9.932;2023-08-21T03:11:45;18.60;1.00
837;DHT22;400;53.550;9.932;2023-08-21T03:14:12;18.60;1.00
837;DHT22;400;53.550;9.932;2023-08-21T03:16:39;18.60;1.00
837;DHT22;400;53.550;9.932;2023-08-21T03:19:06;18.60;1.00
837;DHT22;400;53.550;9.932;2023-08-21T03:21:33;18.60;1.00
837;DHT22;400;53.550;9.932;2023-08-21T03:24:01;18.60;1.00
837;DHT22;400;53.550;9.932;2023-08-21T03:26:28;18.50;1.00
837;DHT22;400;53.550;9.932;2023-08-21T03:28:55;18.50;1.00
837;DHT22;400;53.550;9.932;2023-08-21T03:31:22;18.60;1.00
837;DHT22;400;53.550;9.932;2023-08-21T03:33:51;18.50;1.00
837;DHT22;400;53.550;9.932;2023-08-21T03:36:18;18.50;1.00
837;DHT22;400;53.550;9.932;2023-08-21T03:38:45;18.60;1.00
837;DHT22;400;53.550;9.932;2023-08-21T03:41:13;18.50;1.00
837;DHT22;400;53.550;9.932;2023-08-21T03:43:40;18.50;1.00
837;DHT22;400;53.550;9.932;2023-08-21T03:46:07;18.40;9.00
837;DHT22;400;53.550;9.932;2023-08-21T03:48:34;18.40;28.00
837;DHT22;400;53.550;9.932;2023-08-21T03:51:01;18.40;55.40
837;DHT22;400;53.550;9.932;2023-08-21T03:53:27;18.40;88.60
837;DHT22;400;53.550;9.932;2023-08-21T03:55:54;18.40;99.90
837;DHT22;400;53.550;9.932;2023-08-21T03:58:23;18.30;99.90
837;DHT22;400;53.550;9.932;2023-08-21T04:00:51;18.30;99.90
837;DHT22;400;53.550;9.932;2023-08-21T04:03:18;18.30;99.90
837;DHT22;400;53.550;9.932;2023-08-21T04:05:45;18.40;99.90
837;DHT22;400;53.550;9.932;2023-08-21T04:08:12;18.30;99.90
837;DHT22;400;53.550;9.932;2023-08-21T04:10:38;18.40;99.90
837;DHT22;400;53.550;9.932;2023-08-21T04:13:07;18.40;99.90
837;DHT22;400;53.550;9.932;2023-08-21T04:15:36;18.40;99.90
837;DHT22;400;53.550;9.932;2023-08-21T04:18:03;18.40;99.90
837;DHT22;400;53.550;9.932;2023-08-21T04:20:31;18.50;99.90
837;DHT22;400;53.550;9.932;2023-08-21T04:22:57;18.40;92.40
837;DHT22;400;53.550;9.932;2023-08-21T04:25:27;18.40;90.00
837;DHT22;400;53.550;9.932;2023-08-21T04:27:55;18.40;93.90
837;DHT22;400;53.550;9.932;2023-08-21T04:30:22;18.30;99.70
837;DHT22;400;53.550;9.932;2023-08-21T04:32:51;18.40;88.70
837;DHT22;400;53.550;9.932;2023-08-21T04:35:18;18.40;79.00
837;DHT22;400;53.550;9.932;2023-08-21T04:37:46;18.40;49.30
837;DHT22;400;53.550;9.932;2023-08-21T04:40:13;18.50;45.20
837;DHT22;400;53.550;9.932;2023-08-21T04:42:41;18.60;33.80
837;DHT22;400;53.550;9.932;2023-08-21T04:45:08;18.60;33.60
837;DHT22;400;53.550;9.932;2023-08-21T04:47:35;18.70;21.90
837;DHT22;400;53.550;9.932;2023-08-21T04:50:04;18.70;8.20
837;DHT22;400;53.550;9.932;2023-08-21T04:52:34;18.70;7.90
837;DHT22;400;53.550;9.932;2023-08-21T04:55:09;18.70;14.40
837;DHT22;400;53.550;9.932;2023-08-21T04:57:40;18.70;1.00
837;DHT22;400;53.550;9.932;2023-08-21T05:00:10;18.60;4.50
837;DHT22;400;53.550;9.932;2023-08-21T05:02:38;18.60;14.00
837;DHT22;400;53.550;9.932;2023-08-21T05:05:06;18.60;21.00
837;DHT22;400;53.550;9.932;2023-08-21T05:07:36;18.70;9.70
837;DHT22;400;53.550;9.932;2023-08-21T05:10:04;18.60;1.90
837;DHT22;400;53.550;9.932;2023-08-21T05:12:31;18.70;1.00
837;DHT22;400;53.550;9.932;2023-08-21T05:14:58;18.70;1.00
837;DHT22;400;53.550;9.932;2023-08-21T05:17:24;18.70;1.00
837;DHT22;400;53.550;9.932;2023-08-21T05:19:52;18.60;1.80
837;DHT22;400;53.550;9.932;2023-08-21T05:22:20;18.60;8.10
837;DHT22;400;53.550;9.932;2023-08-21T05:24:47;18.70;1.50
837;DHT22;400;53.550;9.932;2023-08-21T05:27:14;18.80;1.00
837;DHT22;400;53.550;9.932;2023-08-21T05:29:42;18.80;1.00
837;DHT22;400;53.550;9.932;2023-08-21T05:32:11;18.90;1.00
837;DHT22;400;53.550;9.932;2023-08-21T05:34:39;18.90;1.00
837;DHT22;400;53.550;9.932;2023-08-21T05:37:06;18.90;1.00
837;DHT22;400;53.550;9.932;2023-08-21T05:39:35;19.00;1.00
837;DHT22;400;53.550;9.932;2023-08-21T05:42:05;19.10;1.00
837;DHT22;400;53.550;9.932;2023-08-21T05:44:32;19.10;1.00
837;DHT22;400;53.550;9.932;2023-08-21T05:46:59;19.10;1.00
837;DHT22;400;53.550;9.932;2023-08-21T05:49:25;19.00;1.00
837;DHT22;400;53.550;9.932;2023-08-21T05:51:52;19.10;1.00
837;DHT22;400;53.550;9.932;2023-08-21T05:54:19;19.00;1.00
837;DHT22;400;53.550;9.932;2023-08-21T05:56:51;19.00;1.00
837;DHT22;400;53.550;9.932;2023-08-21T05:59:30;19.10;1.00
837;DHT22;400;53.550;9.932;2023-08-21T06:01:57;19.10;1.00
837;DHT22;400;53.550;9.932;2023-08-21T06:04:26;19.20;1.00
837;DHT22;400;53.550;9.932;2023-08-21T06:06:55;19.10;1.00
837;DHT22;400;53.550;9.932;2023-08-21T06:09:26;19.10;1.00
837;DHT22;400;53.550;9.932;2023-08-21T06:12:01;19.20;1.00
837;DHT22;400;53.550;9.932;2023-08-21T06:14:30;19.30;1.00
837;DHT22;400;53.550;9.932;2023-08-21T06:16:58;19.30;1.00
837;DHT22;400;53.550;9.932;2023-08-21T06:19:25;19.40;1.00
837;DHT22;400;53.550;9.932;2023-08-21T06:21:52;19.30;1.00
837;DHT22;400;53.550;9.932;2023-08-21T06:24:19;19.30;1.00
837;DHT22;400;53.550;9.932;2023-08-21T06:30:09;19.40;1.00
837;DHT22;400;53.550;9.932;2023-08-21T06:32:36;19.40;1.00
837;DHT22;400;53.550;9.932;2023-08-21T06:35:04;19.40;1.00
837;DHT22;400;53.550;9.932;2023-08-21T06:37:31;19.40;1.00
837;DHT22;400;53.550;9.932;2023-08-21T06:39:58;19.40;1.00
837;DHT22;400;53.550;9.932;2023-08-21T06:42:25;19.50;1.00
837;DHT22;400;53.550;9.932;2023-08-21T06:44:54;19.50;1.00
837;DHT22;400;53.550;9.932;2023-08-21T06:47:27;19.50;1.00
837;DHT22;400;53.550;9.932;2023-08-21T06:49:55;19.50;1.00
837;DHT22;400;53.550;9.932;2023-08-21T06:52:22;19.60;1.00
837;DHT22;400;53.550;9.932;2023-08-21T06:54:49;19.60;1.00
837;DHT22;400;53.550;9.932;2023-08-21T06:57:16;19.70;1.00
837;DHT22;400;53.550;9.932;2023-08-21T06:59:45;19.80;1.00
837;DHT22;400;53.550;9.932;2023-08-21T07:02:12;19.90;1.00
837;DHT22;400;53.550;9.932;2023-08-21T07:04:40;19.90;1.00
837;DHT22;400;53.550;9.932;2023-08-21T07:07:07;20.00;1.00
837;DHT22;400;53.550;9.932;2023-08-21T07:09:34;20.00;1.00
837;DHT22;400;53.550;9.932;2023-08-21T07:12:01;20.00;1.00
837;DHT22;400;53.550;9.932;2023-08-21T07:14:28;20.00;1.00
837;DHT22;400;53.550;9.932;2023-08-21T07:16:58;20.00;1.00
837;DHT22;400;53.550;9.932;2023-08-21T07:19:31;20.00;1.00
837;DHT22;400;53.550;9.932;2023-08-21T07:22:06;20.10;1.00
837;DHT22;400;53.550;9.932;2023-08-21T07:24:35;20.10;1.00
837;DHT22;400;53.550;9.932;2023-08-21T07:27:02;20.10;1.00
837;DHT22;400;53.550;9.932;2023-08-21T07:29:29;20.20;1.00
837;DHT22;400;53.550;9.932;2023-08-21T07:31:56;20.20;1.00
837;DHT22;400;53.550;9.932;2023-08-21T07:34:23;20.30;1.00
837;DHT22;400;53.550;9.932;2023-08-21T07:36:50;20.30;1.00
837;DHT22;400;53.550;9.932;2023-08-21T07:39:18;20.30;1.00
837;DHT22;400;53.550;9.932;2023-08-21T07:41:45;20.40;1.00
837;DHT22;400;53.550;9.932;2023-08-21T07:44:12;20.50;1.00
837;DHT22;400;53.550;9.932;2023-08-21T07:46:39;20.60;1.00
837;DHT22;400;53.550;9.932;2023-08-21T07:49:09;20.60;1.00
837;DHT22;400;53.550;9.932;2023-08-21T07:51:36;20.60;1.00
837;DHT22;400;53.550;9.932;2023-08-21T07:54:05;20.70;1.00
837;DHT22;400;53.550;9.932;2023-08-21T07:56:39;20.70;1.00
837;DHT22;400;53.550;9.932;2023-08-21T07:59:08;20.80;1.00
837;DHT22;400;53.550;9.932;2023-08-21T08:01:40;20.80;1.00
837;DHT22;400;53.550;9.932;2023-08-21T08:04:10;20.80;1.00
837;DHT22;400;53.550;9.932;2023-08-21T08:06:37;20.80;1.00
837;DHT22;400;53.550;9.932;2023-08-21T08:09:04;20.80;1.00
837;DHT22;400;53.550;9.932;2023-08-21T08:11:31;20.80;1.00
837;DHT22;400;53.550;9.932;2023-08-21T08:14:00;21.00;1.00
837;DHT22;400;53.550;9.932;2023-08-21T08:16:30;21.00;1.00
837;DHT22;400;53.550;9.932;2023-08-21T08:19:00;21.00;1.00
837;DHT22;400;53.550;9.932;2023-08-21T08:21:29;21.00;1.00
837;DHT22;400;53.550;9.932;2023-08-21T08:23:56;21.10;1.00
837;DHT22;400;53.550;9.932;2023-08-21T08:26:23;21.20;1.00
837;DHT22;400;53.550;9.932;2023-08-21T08:28:50;21.20;1.00
837;DHT22;400;53.550;9.932;2023-08-21T08:31:19;21.30;1.00
837;DHT22;400;53.550;9.932;2023-08-21T08:33:46;21.20;1.00
837;DHT22;400;53.550;9.932;2023-08-21T08:36:17;21.20;1.00
837;DHT22;400;53.550;9.932;2023-08-21T08:38:46;21.30;1.00
837;DHT22;400;53.550;9.932;2023-08-21T08:41:21;21.40;1.00
837;DHT22;400;53.550;9.932;2023-08-21T08:43:50;21.40;1.00
837;DHT22;400;53.550;9.932;2023-08-21T08:46:21;21.50;1.00
837;DHT22;400;53.550;9.932;2023-08-21T08:48:51;21.70;1.00
837;DHT22;400;53.550;9.932;2023-08-21T08:51:18;21.70;1.00
837;DHT22;400;53.550;9.932;2023-08-21T08:53:45;21.80;1.00
837;DHT22;400;53.550;9.932;2023-08-21T08:56:13;21.80;1.00
837;DHT22;400;53.550;9.932;2023-08-21T08:58:42;21.90;1.00
837;DHT22;400;53.550;9.932;2023-08-21T09:01:11;21.90;1.00
837;DHT22;400;53.550;9.932;2023-08-21T09:03:40;21.90;1.00
837;DHT22;400;53.550;9.932;2023-08-21T09:06:06;21.90;1.00
837;DHT22;400;53.550;9.932;2023-08-21T09:08:35;21.90;1.00
837;DHT22;400;53.550;9.932;2023-08-21T09:11:07;21.90;1.00
837;DHT22;400;53.550;9.932;2023-08-21T09:13:38;22.00;1.00
837;DHT22;400;53.550;9.932;2023-08-21T09:16:09;21.90;1.00
837;DHT22;400;53.550;9.932;2023-08-21T09:18:38;22.00;1.00
837;DHT22;400;53.550;9.932;2023-08-21T09:21:16;22.10;1.00
837;DHT22;400;53.550;9.932;2023-08-21T09:23:47;22.10;1.00
837;DHT22;400;53.550;9.932;2023-08-21T09:26:18;22.20;1.00
837;DHT22;400;53.550;9.932;2023-08-21T09:28:46;22.30;1.00
837;DHT22;400;53.550;9.932;2023-08-21T09:31:14;22.30;1.00
837;DHT22;400;53.550;9.932;2023-08-21T09:33:42;22.30;1.00
837;DHT22;400;53.550;9.932;2023-08-21T09:36:12;22.30;1.00
837;DHT22;400;53.550;9.932;2023-08-21T09:38:40;22.40;1.00
837;DHT22;400;53.550;9.932;2023-08-21T09:41:13;22.30;1.00
837;DHT22;400;53.550;9.932;2023-08-21T09:43:41;22.30;1.00
837;DHT22;400;53.550;9.932;2023-08-21T09:46:14;22.40;1.00
837;DHT22;400;53.550;9.932;2023-08-21T09:48:42;22.40;1.00
837;DHT22;400;53.550;9.932;2023-08-21T09:51:11;22.50;1.00
837;DHT22;400;53.550;9.932;2023-08-21T09:53:38;22.50;1.00
837;DHT22;400;53.550;9.932;2023-08-21T09:56:06;22.70;1.00
837;DHT22;400;53.550;9.932;2023-08-21T09:58:35;22.70;1.00
837;DHT22;400;53.550;9.932;2023-08-21T10:01:05;22.70;1.00
837;DHT22;400;53.550;9.932;2023-08-21T10:03:39;22.70;1.00
837;DHT22;400;53.550;9.932;2023-08-21T10:06:12;22.80;1.00
837;DHT22;400;53.550;9.932;2023-08-21T10:08:46;22.80;1.00
837;DHT22;400;53.550;9.932;2023-08-21T10:11:17;22.90;1.00
837;DHT22;400;53.550;9.932;2023-08-21T10:13:49;23.00;1.00
837;DHT22;400;53.550;9.932;2023-08-21T10:16:18;23.00;1.00
837;DHT22;400;53.550;9.932;2023-08-21T10:18:47;23.10;1.00
837;DHT22;400;53.550;9.932;2023-08-21T10:21:17;23.00;1.00
837;DHT22;400;53.550;9.932;2023-08-21T10:23:46;23.00;1.00
837;DHT22;400;53.550;9.932;2023-08-21T10:26:14;23.20;1.00
837;DHT22;400;53.550;9.932;2023-08-21T10:28:48;23.10;1.00
837;DHT22;400;53.550;9.932;2023-08-21T10:31:28;23.30;1.00
837;DHT22;400;53.550;9.932;2023-08-21T10:33:57;23.50;1.00
837;DHT22;400;53.550;9.932;2023-08-21T10:39:34;23.50;1.00
837;DHT22;400;53.550;9.932;2023-08-21T10:42:06;23.50;1.00
837;DHT22;400;53.550;9.932;2023-08-21T10:44:35;23.40;1.00
837;DHT22;400;53.550;9.932;2023-08-21T10:47:16;23.40;1.00
837;DHT22;400;53.550;9.932;2023-08-21T10:49:45;23.50;1.00
837;DHT22;400;53.550;9.932;2023-08-21T10:52:12;23.40;1.00
837;DHT22;400;53.550;9.932;2023-08-21T10:54:51;23.60;1.00
837;DHT22;400;53.550;9.932;2023-08-21T10:57:22;23.60;1.00
837;DHT22;400;53.550;9.932;2023-08-21T10:59:51;23.60;1.00
837;DHT22;400;53.550;9.932;2023-08-21T11:02:23;23.60;1.00
837;DHT22;400;53.550;9.932;2023-08-21T11:04:51;23.70;1.00
837;DHT22;400;53.550;9.932;2023-08-21T11:07:18;23.80;1.00
837;DHT22;400;53.550;9.932;2023-08-21T11:09:48;23.60;1.00
837;DHT22;400;53.550;9.932;2023-08-21T11:12:20;23.60;1.00
837;DHT22;400;53.550;9.932;2023-08-21T11:14:49;23.70;1.00
837;DHT22;400;53.550;9.932;2023-08-21T11:17:19;23.60;1.00
837;DHT22;400;53.550;9.932;2023-08-21T11:19:48;23.60;1.00
837;DHT22;400;53.550;9.932;2023-08-21T11:22:18;23.70;1.00
837;DHT22;400;53.550;9.932;2023-08-21T11:24:51;23.70;1.00
837;DHT22;400;53.550;9.932;2023-08-21T11:27:27;23.70;1.00
837;DHT22;400;53.550;9.932;2023-08-21T11:30:00;23.70;1.00
837;DHT22;400;53.550;9.932;2023-08-21T11:32:29;23.90;1.00
837;DHT22;400;53.550;9.932;2023-08-21T11:35:00;23.80;1.00
837;DHT22;400;53.550;9.932;2023-08-21T11:37:42;23.90;1.00
837;DHT22;400;53.550;9.932;2023-08-21T11:40:16;23.80;1.00
837;DHT22;400;53.550;9.932;2023-08-21T11:42:44;23.80;1.00
837;DHT22;400;53.550;9.932;2023-08-21T11:45:12;23.70;1.00
837;DHT22;400;53.550;9.932;2023-08-21T11:47:59;23.70;1.00
837;DHT22;400;53.550;9.932;2023-08-21T11:50:34;23.70;1.00
837;DHT22;400;53.550;9.932;2023-08-21T11:53:06;23.80;1.00
837;DHT22;400;53.550;9.932;2023-08-21T11:55:42;23.90;1.00
837;DHT22;400;53.550;9.932;2023-08-21T11:58:13;24.00;1.00
837;DHT22;400;53.550;9.932;2023-08-21T12:00:47;24.00;1.00
837;DHT22;400;53.550;9.932;2023-08-21T12:03:21;24.10;1.00
837;DHT22;400;53.550;9.932;2023-08-21T12:05:57;24.00;1.00
837;DHT22;400;53.550;9.932;2023-08-21T12:08:24;24.00;1.00
837;DHT22;400;53.550;9.932;2023-08-21T12:10:53;24.00;1.00
837;DHT22;400;53.550;9.932;2023-08-21T12:13:21;24.00;1.00
837;DHT22;400;53.550;9.932;2023-08-21T12:15:51;24.00;1.00
837;DHT22;400;53.550;9.932;2023-08-21T12:18:19;24.10;1.00
837;DHT22;400;53.550;9.932;2023-08-21T12:20:46;24.20;1.00
837;DHT22;400;53.550;9.932;2023-08-21T12:23:15;24.20;1.00
837;DHT22;400;53.550;9.932;2023-08-21T12:25:47;24.30;1.00
837;DHT22;400;53.550;9.932;2023-08-21T12:28:20;24.40;1.00
837;DHT22;400;53.550;9.932;2023-08-21T12:30:56;24.60;1.00
837;DHT22;400;53.550;9.932;2023-08-21T12:33:32;24.70;1.00
837;DHT22;400;53.550;9.932;2023-08-21T12:36:07;24.70;1.00
837;DHT22;400;53.550;9.932;2023-08-21T12:38:34;24.50;1.00
837;DHT22;400;53.550;9.932;2023-08-21T12:41:03;24.70;1.00
837;DHT22;400;53.550;9.932;2023-08-21T12:43:31;24.70;1.00
837;DHT22;400;53.550;9.932;2023-08-21T12:45:58;24.70;1.00
837;DHT22;400;53.550;9.932;2023-08-21T12:48:25;24.70;1.00
837;DHT22;400;53.550;9.932;2023-08-21T12:50:55;24.70;1.00
837;DHT22;400;53.550;9.932;2023-08-21T12:53:24;24.80;1.00
837;DHT22;400;53.550;9.932;2023-08-21T12:55:51;24.80;1.00
837;DHT22;400;53.550;9.932;2023-08-21T12:58:18;24.70;1.00
837;DHT22;400;53.550;9.932;2023-08-21T13:00:47;24.70;1.00
837;DHT22;400;53.550;9.932;2023-08-21T13:03:14;24.80;1.00
837;DHT22;400;53.550;9.932;2023-08-21T13:05:41;24.80;1.00
837;DHT22;400;53.550;9.932;2023-08-21T13:08:08;24.80;1.00
837;DHT22;400;53.550;9.932;2023-08-21T13:10:35;24.80;1.00
837;DHT22;400;53.550;9.932;2023-08-21T13:13:15;24.80;1.00
837;DHT22;400;53.550;9.932;2023-08-21T13:16:01;24.90;1.00
837;DHT22;400;53.550;9.932;2023-08-21T13:18:31;25.00;1.00
837;DHT22;400;53.550;9.932;2023-08-21T13:20:58;24.90;1.00
837;DHT22;400;53.550;9.932;2023-08-21T13:23:25;25.00;1.00
837;DHT22;400;53.550;9.932;2023-08-21T13:25:53;25.00;1.00
837;DHT22;400;53.550;9.932;2023-08-21T13:28:20;25.10;1.00
837;DHT22;400;53.550;9.932;2023-08-21T13:30:47;25.00;1.00
837;DHT22;400;53.550;9.932;2023-08-21T13:33:15;25.00;1.00
837;DHT22;400;53.550;9.932;2023-08-21T13:35:46;24.90;1.00
837;DHT22;400;53.550;9.932;2023-08-21T13:38:18;24.90;1.00
837;DHT22;400;53.550;9.932;2023-08-21T13:40:51;24.90;1.00
837;DHT22;400;53.550;9.932;2023-08-21T13:43:22;25.00;1.00
837;DHT22;400;53.550;9.932;2023-08-21T13:45:49;25.00;1.00
837;DHT22;400;53.550;9.932;2023-08-21T13:48:18;25.00;1.00
837;DHT22;400;53.550;9.932;2023-08-21T13:50:44;25.00;1.00
837;DHT22;400;53.550;9.932;2023-08-21T13:53:11;25.00;1.00
837;DHT22;400;53.550;9.932;2023-08-21T13:55:41;25.00;1.00
837;DHT22;400;53.550;9.932;2023-08-21T13:58:12;25.00;1.00
837;DHT22;400;53.550;9.932;2023-08-21T14:00:46;24.90;1.00
837;DHT22;400;53.550;9.932;2023-08-21T14:03:21;24.90;1.00
837;DHT22;400;53.550;9.932;2023-08-21T14:05:57;25.00;1.00
837;DHT22;400;53.550;9.932;2023-08-21T14:08:24;25.00;1.00
837;DHT22;400;53.550;9.932;2023-08-21T14:10:51;24.90;1.00
837;DHT22;400;53.550;9.932;2023-08-21T14:13:21;25.00;1.00
837;DHT22;400;53.550;9.932;2023-08-21T14:15:51;25.00;1.00
837;DHT22;400;53.550;9.932;2023-08-21T14:18:22;25.00;1.00
837;DHT22;400;53.550;9.932;2023-08-21T14:20:49;25.10;1.00
837;DHT22;400;53.550;9.932;2023-08-21T14:23:18;25.00;1.00
837;DHT22;400;53.550;9.932;2023-08-21T14:25:49;25.00;1.00
837;DHT22;400;53.550;9.932;2023-08-21T14:28:23;25.00;1.00
837;DHT22;400;53.550;9.932;2023-08-21T14:30:57;25.00;1.00
837;DHT22;400;53.550;9.932;2023-08-21T14:33:28;25.10;1.00
837;DHT22;400;53.550;9.932;2023-08-21T14:35:55;25.00;1.00
837;DHT22;400;53.550;9.932;2023-08-21T14:38:22;25.10;1.00
837;DHT22;400;53.550;9.932;2023-08-21T14:40:52;25.10;1.00
837;DHT22;400;53.550;9.932;2023-08-21T14:43:24;24.90;1.00
837;DHT22;400;53.550;9.932;2023-08-21T14:45:54;25.00;1.00
837;DHT22;400;53.550;9.932;2023-08-21T14:48:29;25.00;1.00
837;DHT22;400;53.550;9.932;2023-08-21T14:51:02;25.10;1.00
837;DHT22;400;53.550;9.932;2023-08-21T14:53:33;24.90;1.00
837;DHT22;400;53.550;9.932;2023-08-21T14:56:04;24.80;1.00
837;DHT22;400;53.550;9.932;2023-08-21T14:58:36;24.80;1.00
837;DHT22;400;53.550;9.932;2023-08-21T15:01:08;24.90;1.00
837;DHT22;400;53.550;9.932;2023-08-21T15:03:37;24.90;1.00
837;DHT22;400;53.550;9.932;2023-08-21T15:06:05;24.80;1.00
837;DHT22;400;53.550;9.932;2023-08-21T15:08:32;24.90;1.00
837;DHT22;400;53.550;9.932;2023-08-21T15:11:00;24.90;1.00
837;DHT22;400;53.550;9.932;2023-08-21T15:13:27;24.70;1.00
837;DHT22;400;53.550;9.932;2023-08-21T15:15:54;24.80;1.00
837;DHT22;400;53.550;9.932;2023-08-21T15:18:21;24.80;1.00
837;DHT22;400;53.550;9.932;2023-08-21T15:20:50;24.80;1.00
837;DHT22;400;53.550;9.932;2023-08-21T15:23:19;24.80;1.00
837;DHT22;400;53.550;9.932;2023-08-21T15:25:47;24.90;1.00
837;DHT22;400;53.550;9.932;2023-08-21T15:28:16;24.90;1.00
837;DHT22;400;53.550;9.932;2023-08-21T15:30:44;24.80;1.00
837;DHT22;400;53.550;9.932;2023-08-21T15:33:12;24.80;1.00
837;DHT22;400;53.550;9.932;2023-08-21T15:35:39;24.90;1.00
837;DHT22;400;53.550;9.932;2023-08-21T15:38:07;24.80;1.00
837;DHT22;400;53.550;9.932;2023-08-21T15:40:34;24.80;1.00
837;DHT22;400;53.550;9.932;2023-08-21T15:43:03;24.80;1.00
837;DHT22;400;53.550;9.932;2023-08-21T15:45:31;24.80;1.00
837;DHT22;400;53.550;9.932;2023-08-21T15:47:58;24.80;1.00
837;DHT22;400;53.550;9.932;2023-08-21T15:50:25;24.80;1.00
837;DHT22;400;53.550;9.932;2023-08-21T15:52:52;24.80;1.00
837;DHT22;400;53.550;9.932;2023-08-21T15:55:22;24.90;1.00
837;DHT22;400;53.550;9.932;2023-08-21T15:57:54;24.80;1.00
837;DHT22;400;53.550;9.932;2023-08-21T16:00:23;24.80;1.00
837;DHT22;400;53.550;9.932;2023-08-21T16:02:52;24.80;1.00
837;DHT22;400;53.550;9.932;2023-08-21T16:05:21;24.90;1.00
837;DHT22;400;53.550;9.932;2023-08-21T16:07:49;24.90;1.00
837;DHT22;400;53.550;9.932;2023-08-21T16:10:20;24.80;1.00
837;DHT22;400;53.550;9.932;2023-08-21T16:13:02;24.80;1.00
837;DHT22;400;53.550;9.932;2023-08-21T16:15:33;24.70;1.00
837;DHT22;400;53.550;9.932;2023-08-21T16:18:05;24.80;1.00
837;DHT22;400;53.550;9.932;2023-08-21T16:20:38;24.70;1.00
837;DHT22;400;53.550;9.932;2023-08-21T16:23:11;24.80;1.00
837;DHT22;400;53.550;9.932;2023-08-21T16:25:43;24.80;1.00
837;DHT22;400;53.550;9.932;2023-08-21T16:28:11;24.80;1.00
837;DHT22;400;53.550;9.932;2023-08-21T16:30:42;24.80;1.00
837;DHT22;400;53.550;9.932;2023-08-21T16:33:14;24.80;1.00
837;DHT22;400;53.550;9.932;2023-08-21T16:35:50;25.00;1.00
837;DHT22;400;53.550;9.932;2023-08-21T16:38:25;25.80;1.00
837;DHT22;400;53.550;9.932;2023-08-21T16:40:56;26.70;1.00
837;DHT22;400;53.550;9.932;2023-08-21T16:43:28;27.30;1.00
837;DHT22;400;53.550;9.932;2023-08-21T16:45:59;28.20;1.00
837;DHT22;400;53.550;9.932;2023-08-21T16:48:31;28.70;1.00
837;DHT22;400;53.550;9.932;2023-08-21T16:51:03;29.00;1.00
837;DHT22;400;53.550;9.932;2023-08-21T16:53:40;28.80;1.00
837;DHT22;400;53.550;9.932;2023-08-21T16:56:11;28.20;1.00
837;DHT22;400;53.550;9.932;2023-08-21T16:58:41;27.80;1.00
837;DHT22;400;53.550;9.932;2023-08-21T17:01:10;27.10;1.00
837;DHT22;400;53.550;9.932;2023-08-21T17:03:40;26.90;1.00
837;DHT22;400;53.550;9.932;2023-08-21T17:06:14;26.60;1.00
837;DHT22;400;53.550;9.932;2023-08-21T17:08:43;27.10;1.00
837;DHT22;400;53.550;9.932;2023-08-21T17:11:12;27.90;1.00